sensor_id;sensor_type;location;lat;lon;timestamp;P1;durP1;ratioP1;P2;durP2;ratioP2
19285;SDS011;9776;50.798;6.430;2024-01-30T00:00:32;13.68;;;7.93;;
19285;SDS011;9776;50.798;6.430;2024-01-30T00:02:58;13.98;;;8.32;;
19285;SDS011;9776;50.798;6.430;2024-01-30T00:05:25;12.70;;;8.20;;
19285;SDS011;9776;50.798;6.430;2024-01-30T00:07:52;15.88;;;8.50;;
19285;SDS011;9776;50.798;6.430;2024-01-30T00:10:18;13.50;;;8.02;;
19285;SDS011;9776;50.798;6.430;2024-01-30T00:12:45;12.18;;;7.55;;
19285;SDS011;9776;50.798;6.430;2024-01-30T00:15:14;12.45;;;8.13;;
19285;SDS011;9776;50.798;6.430;2024-01-30T00:17:40;14.60;;;8.20;;
19285;SDS011;9776;50.798;6.430;2024-01-30T00:20:07;13.07;;;8.13;;
19285;SDS011;9776;50.798;6.430;2024-01-30T00:22:35;14.82;;;8.23;;
19285;SDS011;9776;50.798;6.430;2024-01-30T00:25:01;13.93;;;7.57;;
19285;SDS011;9776;50.798;6.430;2024-01-30T00:27:28;14.05;;;7.70;;
19285;SDS011;9776;50.798;6.430;2024-01-30T00:29:55;12.80;;;7.40;;
19285;SDS011;9776;50.798;6.430;2024-01-30T00:32:23;12.13;;;7.45;;
19285;SDS011;9776;50.798;6.430;2024-01-30T00:34:50;13.95;;;7.70;;
19285;SDS011;9776;50.798;6.430;2024-01-30T00:37:16;13.40;;;7.50;;
19285;SDS011;9776;50.798;6.430;2024-01-30T00:39:43;11.98;;;6.60;;
19285;SDS011;9776;50.798;6.430;2024-01-30T00:42:10;11.48;;;6.32;;
19285;SDS011;9776;50.798;6.430;2024-01-30T00:44:36;11.50;;;6.68;;
19285;SDS011;9776;50.798;6.430;2024-01-30T00:47:03;11.55;;;6.38;;
19285;SDS011;9776;50.798;6.430;2024-01-30T00:49:32;11.70;;;7.13;;
19285;SDS011;9776;50.798;6.430;2024-01-30T00:51:58;12.35;;;6.30;;
19285;SDS011;9776;50.798;6.430;2024-01-30T00:54:25;10.98;;;6.10;;
19285;SDS011;9776;50.798;6.430;2024-01-30T00:56:52;7.57;;;4.65;;
19285;SDS011;9776;50.798;6.430;2024-01-30T00:59:18;8.32;;;5.22;;
19285;SDS011;9776;50.798;6.430;2024-01-30T01:01:45;9.70;;;5.47;;
19285;SDS011;9776;50.798;6.430;2024-01-30T01:04:12;8.15;;;4.43;;
19285;SDS011;9776;50.798;6.430;2024-01-30T01:06:40;7.90;;;4.55;;
19285;SDS011;9776;50.798;6.430;2024-01-30T01:09:09;7.88;;;5.18;;
19285;SDS011;9776;50.798;6.430;2024-01-30T01:11:36;8.85;;;4.93;;
19285;SDS011;9776;50.798;6.430;2024-01-30T01:14:03;8.50;;;4.50;;
19285;SDS011;9776;50.798;6.430;2024-01-30T01:16:30;7.07;;;4.10;;
19285;SDS011;9776;50.798;6.430;2024-01-30T01:18:57;7.57;;;4.40;;
19285;SDS011;9776;50.798;6.430;2024-01-30T01:21:25;7.18;;;4.85;;
19285;SDS011;9776;50.798;6.430;2024-01-30T01:23:53;9.07;;;4.93;;
19285;SDS011;9776;50.798;6.430;2024-01-30T01:26:20;9.82;;;4.80;;
19285;SDS011;9776;50.798;6.430;2024-01-30T01:28:46;8.75;;;5.03;;
19285;SDS011;9776;50.798;6.430;2024-01-30T01:31:13;7.55;;;4.60;;
19285;SDS011;9776;50.798;6.430;2024-01-30T01:33:40;9.25;;;4.70;;
19285;SDS011;9776;50.798;6.430;2024-01-30T01:36:06;10.60;;;5.53;;
19285;SDS011;9776;50.798;6.430;2024-01-30T01:38:33;11.48;;;5.50;;
19285;SDS011;9776;50.798;6.430;2024-01-30T01:41:01;9.90;;;5.22;;
19285;SDS011;9776;50.798;6.430;2024-01-30T01:43:27;10.35;;;5.03;;
19285;SDS011;9776;50.798;6.430;2024-01-30T01:45:55;9.05;;;5.15;;
19285;SDS011;9776;50.798;6.430;2024-01-30T01:48:21;7.53;;;4.75;;
19285;SDS011;9776;50.798;6.430;2024-01-30T01:50:48;8.70;;;5.35;;
19285;SDS011;9776;50.798;6.430;2024-01-30T01:53:15;10.80;;;5.47;;
19285;SDS011;9776;50.798;6.430;2024-01-30T01:55:42;6.95;;;4.97;;
19285;SDS011;9776;50.798;6.430;2024-01-30T01:58:11;9.73;;;5.40;;
19285;SDS011;9776;50.798;6.430;2024-01-30T02:00:38;7.78;;;5.07;;
19285;SDS011;9776;50.798;6.430;2024-01-30T02:03:06;11.20;;;5.28;;
19285;SDS011;9776;50.798;6.430;2024-01-30T02:05:36;8.10;;;4.70;;
19285;SDS011;9776;50.798;6.430;2024-01-30T02:08:03;8.85;;;5.50;;
19285;SDS011;9776;50.798;6.430;2024-01-30T02:10:31;8.35;;;5.05;;
19285;SDS011;9776;50.798;6.430;2024-01-30T02:12:57;6.63;;;4.68;;
19285;SDS011;9776;50.798;6.430;2024-01-30T02:15:25;7.70;;;4.90;;
19285;SDS011;9776;50.798;6.430;2024-01-30T02:17:52;7.78;;;4.45;;
19285;SDS011;9776;50.798;6.430;2024-01-30T02:20:19;9.18;;;5.18;;
19285;SDS011;9776;50.798;6.430;2024-01-30T02:22:47;8.30;;;5.25;;
19285;SDS011;9776;50.798;6.430;2024-01-30T02:25:15;9.65;;;5.47;;
19285;SDS011;9776;50.798;6.430;2024-01-30T02:27:41;8.73;;;5.10;;
19285;SDS011;9776;50.798;6.430;2024-01-30T02:30:08;10.43;;;5.40;;
19285;SDS011;9776;50.798;6.430;2024-01-30T02:32:36;8.60;;;5.22;;
19285;SDS011;9776;50.798;6.430;2024-01-30T02:35:03;9.25;;;5.25;;
19285;SDS011;9776;50.798;6.430;2024-01-30T02:37:30;10.50;;;5.53;;
19285;SDS011;9776;50.798;6.430;2024-01-30T02:39:58;9.05;;;5.35;;
19285;SDS011;9776;50.798;6.430;2024-01-30T02:42:25;10.70;;;6.00;;
19285;SDS011;9776;50.798;6.430;2024-01-30T02:44:52;10.45;;;5.68;;
19285;SDS011;9776;50.798;6.430;2024-01-30T02:47:18;10.52;;;5.47;;
19285;SDS011;9776;50.798;6.430;2024-01-30T02:49:45;8.88;;;5.80;;
19285;SDS011;9776;50.798;6.430;2024-01-30T02:52:12;10.98;;;6.13;;
19285;SDS011;9776;50.798;6.430;2024-01-30T02:54:38;10.20;;;5.88;;
19285;SDS011;9776;50.798;6.430;2024-01-30T02:57:06;10.98;;;6.10;;
19285;SDS011;9776;50.798;6.430;2024-01-30T02:59:33;11.50;;;6.18;;
19285;SDS011;9776;50.798;6.430;2024-01-30T03:02:01;10.82;;;5.90;;
19285;SDS011;9776;50.798;6.430;2024-01-30T03:04:27;10.57;;;5.38;;
19285;SDS011;9776;50.798;6.430;2024-01-30T03:06:55;10.38;;;5.68;;
19285;SDS011;9776;50.798;6.430;2024-01-30T03:09:21;8.95;;;5.13;;
19285;SDS011;9776;50.798;6.430;2024-01-30T03:11:48;9.88;;;5.32;;
19285;SDS011;9776;50.798;6.430;2024-01-30T03:14:16;10.48;;;5.07;;
19285;SDS011;9776;50.798;6.430;2024-01-30T03:16:43;8.05;;;5.20;;
19285;SDS011;9776;50.798;6.430;2024-01-30T03:19:09;9.93;;;5.38;;
19285;SDS011;9776;50.798;6.430;2024-01-30T03:21:36;8.85;;;5.10;;
19285;SDS011;9776;50.798;6.430;2024-01-30T03:24:03;8.27;;;5.50;;
19285;SDS011;9776;50.798;6.430;2024-01-30T03:26:30;8.60;;;5.18;;
19285;SDS011;9776;50.798;6.430;2024-01-30T03:28:56;8.82;;;5.20;;
19285;SDS011;9776;50.798;6.430;2024-01-30T03:31:24;10.25;;;4.60;;
19285;SDS011;9776;50.798;6.430;2024-01-30T03:33:51;9.38;;;5.13;;
19285;SDS011;9776;50.798;6.430;2024-01-30T03:36:18;12.48;;;4.80;;
19285;SDS011;9776;50.798;6.430;2024-01-30T03:38:44;6.85;;;4.60;;
19285;SDS011;9776;50.798;6.430;2024-01-30T03:41:11;7.72;;;4.40;;
19285;SDS011;9776;50.798;6.430;2024-01-30T03:43:38;7.32;;;4.50;;
19285;SDS011;9776;50.798;6.430;2024-01-30T03:46:04;7.75;;;4.88;;
19285;SDS011;9776;50.798;6.430;2024-01-30T03:48:32;7.85;;;4.43;;
19285;SDS011;9776;50.798;6.430;2024-01-30T03:50:59;8.60;;;4.55;;
19285;SDS011;9776;50.798;6.430;2024-01-30T03:53:26;10.13;;;4.57;;
19285;SDS011;9776;50.798;6.430;2024-01-30T03:55:52;7.72;;;5.00;;
19285;SDS011;9776;50.798;6.430;2024-01-30T03:58:19;11.02;;;6.50;;
19285;SDS011;9776;50.798;6.430;2024-01-30T04:00:46;8.82;;;5.03;;
19285;SDS011;9776;50.798;6.430;2024-01-30T04:03:12;7.65;;;5.07;;
19285;SDS011;9776;50.798;6.430;2024-01-30T04:05:42;8.48;;;5.30;;
19285;SDS011;9776;50.798;6.430;2024-01-30T04:08:09;7.57;;;4.82;;
19285;SDS011;9776;50.798;6.430;2024-01-30T04:10:36;8.95;;;5.22;;
19285;SDS011;9776;50.798;6.430;2024-01-30T04:13:03;8.75;;;4.95;;
19285;SDS011;9776;50.798;6.430;2024-01-30T04:15:30;10.13;;;5.22;;
19285;SDS011;9776;50.798;6.430;2024-01-30T04:17:57;7.60;;;5.03;;
19285;SDS011;9776;50.798;6.430;2024-01-30T04:20:24;9.38;;;5.50;;
19285;SDS011;9776;50.798;6.430;2024-01-30T04:22:52;9.73;;;4.93;;
19285;SDS011;9776;50.798;6.430;2024-01-30T04:25:19;10.05;;;5.28;;
19285;SDS011;9776;50.798;6.430;2024-01-30T04:27:46;10.10;;;5.57;;
19285;SDS011;9776;50.798;6.430;2024-01-30T04:30:13;9.05;;;5.03;;
19285;SDS011;9776;50.798;6.430;2024-01-30T04:32:39;9.95;;;5.03;;
19285;SDS011;9776;50.798;6.430;2024-01-30T04:35:06;9.32;;;4.82;;
19285;SDS011;9776;50.798;6.430;2024-01-30T04:37:33;12.40;;;5.22;;
19285;SDS011;9776;50.798;6.430;2024-01-30T04:40:01;9.13;;;5.50;;
19285;SDS011;9776;50.798;6.430;2024-01-30T04:42:28;8.70;;;4.85;;
19285;SDS011;9776;50.798;6.430;2024-01-30T04:44:54;7.55;;;4.75;;
19285;SDS011;9776;50.798;6.430;2024-01-30T04:47:21;8.90;;;6.15;;
19285;SDS011;9776;50.798;6.430;2024-01-30T04:49:48;9.25;;;5.45;;
19285;SDS011;9776;50.798;6.430;2024-01-30T04:52:15;8.60;;;5.25;;
19285;SDS011;9776;50.798;6.430;2024-01-30T04:54:42;8.27;;;5.13;;
19285;SDS011;9776;50.798;6.430;2024-01-30T04:57:10;11.15;;;5.00;;
19285;SDS011;9776;50.798;6.430;2024-01-30T04:59:37;7.70;;;5.30;;
19285;SDS011;9776;50.798;6.430;2024-01-30T05:02:04;9.75;;;5.13;;
19285;SDS011;9776;50.798;6.430;2024-01-30T05:04:31;9.45;;;5.70;;
19285;SDS011;9776;50.798;6.430;2024-01-30T05:06:57;10.05;;;5.80;;
19285;SDS011;9776;50.798;6.430;2024-01-30T05:09:24;8.90;;;5.45;;
19285;SDS011;9776;50.798;6.430;2024-01-30T05:11:51;7.97;;;5.15;;
19285;SDS011;9776;50.798;6.430;2024-01-30T05:14:19;8.95;;;5.18;;
19285;SDS011;9776;50.798;6.430;2024-01-30T05:16:45;9.50;;;5.40;;
19285;SDS011;9776;50.798;6.430;2024-01-30T05:19:13;9.63;;;5.45;;
19285;SDS011;9776;50.798;6.430;2024-01-30T05:21:40;8.88;;;5.38;;
19285;SDS011;9776;50.798;6.430;2024-01-30T05:24:07;8.05;;;5.05;;
19285;SDS011;9776;50.798;6.430;2024-01-30T05:26:35;11.15;;;4.85;;
19285;SDS011;9776;50.798;6.430;2024-01-30T05:29:02;6.88;;;4.70;;
19285;SDS011;9776;50.798;6.430;2024-01-30T05:31:30;9.57;;;4.82;;
19285;SDS011;9776;50.798;6.430;2024-01-30T05:33:56;8.95;;;4.90;;
19285;SDS011;9776;50.798;6.430;2024-01-30T05:36:23;9.60;;;5.20;;
19285;SDS011;9776;50.798;6.430;2024-01-30T05:38:50;9.10;;;4.85;;
19285;SDS011;9776;50.798;6.430;2024-01-30T05:41:17;9.35;;;5.30;;
19285;SDS011;9776;50.798;6.430;2024-01-30T05:43:43;10.65;;;5.78;;
19285;SDS011;9776;50.798;6.430;2024-01-30T05:46:10;8.07;;;4.90;;
19285;SDS011;9776;50.798;6.430;2024-01-30T05:48:38;10.38;;;5.38;;
19285;SDS011;9776;50.798;6.430;2024-01-30T05:51:06;8.90;;;5.20;;
19285;SDS011;9776;50.798;6.430;2024-01-30T05:53:33;11.57;;;5.68;;
19285;SDS011;9776;50.798;6.430;2024-01-30T05:56:01;9.52;;;5.47;;
19285;SDS011;9776;50.798;6.430;2024-01-30T05:58:28;9.88;;;5.57;;
19285;SDS011;9776;50.798;6.430;2024-01-30T06:00:56;9.48;;;5.28;;
19285;SDS011;9776;50.798;6.430;2024-01-30T06:03:22;13.07;;;6.22;;
19285;SDS011;9776;50.798;6.430;2024-01-30T06:05:50;9.27;;;5.63;;
19285;SDS011;9776;50.798;6.430;2024-01-30T06:08:17;8.90;;;5.45;;
19285;SDS011;9776;50.798;6.430;2024-01-30T06:10:44;12.95;;;5.97;;
19285;SDS011;9776;50.798;6.430;2024-01-30T06:13:10;10.55;;;5.72;;
19285;SDS011;9776;50.798;6.430;2024-01-30T06:15:37;11.38;;;5.97;;
19285;SDS011;9776;50.798;6.430;2024-01-30T06:18:04;10.35;;;6.38;;
19285;SDS011;9776;50.798;6.430;2024-01-30T06:20:31;12.35;;;5.78;;
19285;SDS011;9776;50.798;6.430;2024-01-30T06:22:59;11.00;;;6.18;;
19285;SDS011;9776;50.798;6.430;2024-01-30T06:25:26;9.15;;;5.68;;
19285;SDS011;9776;50.798;6.430;2024-01-30T06:27:52;9.85;;;6.20;;
19285;SDS011;9776;50.798;6.430;2024-01-30T06:30:19;11.55;;;6.35;;
19285;SDS011;9776;50.798;6.430;2024-01-30T06:32:46;12.73;;;6.25;;
19285;SDS011;9776;50.798;6.430;2024-01-30T06:35:12;11.43;;;6.22;;
19285;SDS011;9776;50.798;6.430;2024-01-30T06:37:39;11.85;;;6.40;;
19285;SDS011;9776;50.798;6.430;2024-01-30T06:40:08;11.32;;;6.65;;
19285;SDS011;9776;50.798;6.430;2024-01-30T06:42:35;10.15;;;6.30;;
19285;SDS011;9776;50.798;6.430;2024-01-30T06:45:02;10.05;;;6.38;;
19285;SDS011;9776;50.798;6.430;2024-01-30T06:47:29;13.27;;;7.07;;
19285;SDS011;9776;50.798;6.430;2024-01-30T06:49:57;9.43;;;6.03;;
19285;SDS011;9776;50.798;6.430;2024-01-30T06:52:24;12.32;;;6.70;;
19285;SDS011;9776;50.798;6.430;2024-01-30T06:54:51;10.25;;;6.20;;
19285;SDS011;9776;50.798;6.430;2024-01-30T06:57:20;12.10;;;6.18;;
19285;SDS011;9776;50.798;6.430;2024-01-30T06:59:46;10.50;;;6.30;;
19285;SDS011;9776;50.798;6.430;2024-01-30T07:02:13;10.15;;;6.15;;
19285;SDS011;9776;50.798;6.430;2024-01-30T07:04:40;10.23;;;6.05;;
19285;SDS011;9776;50.798;6.430;2024-01-30T07:07:07;11.82;;;5.90;;
19285;SDS011;9776;50.798;6.430;2024-01-30T07:09:37;11.82;;;6.35;;
19285;SDS011;9776;50.798;6.430;2024-01-30T07:12:04;10.38;;;5.97;;
19285;SDS011;9776;50.798;6.430;2024-01-30T07:14:33;10.52;;;6.10;;
19285;SDS011;9776;50.798;6.430;2024-01-30T07:17:00;12.27;;;6.10;;
19285;SDS011;9776;50.798;6.430;2024-01-30T07:19:27;9.88;;;5.60;;
19285;SDS011;9776;50.798;6.430;2024-01-30T07:21:53;10.43;;;6.40;;
19285;SDS011;9776;50.798;6.430;2024-01-30T07:24:20;10.82;;;6.10;;
19285;SDS011;9776;50.798;6.430;2024-01-30T07:26:47;9.40;;;6.10;;
19285;SDS011;9776;50.798;6.430;2024-01-30T07:29:13;9.73;;;5.90;;
19285;SDS011;9776;50.798;6.430;2024-01-30T07:31:42;9.48;;;6.22;;
19285;SDS011;9776;50.798;6.430;2024-01-30T07:34:08;10.38;;;5.90;;
19285;SDS011;9776;50.798;6.430;2024-01-30T07:36:35;9.25;;;5.07;;
19285;SDS011;9776;50.798;6.430;2024-01-30T07:39:02;11.40;;;6.53;;
19285;SDS011;9776;50.798;6.430;2024-01-30T07:41:28;9.60;;;5.72;;
19285;SDS011;9776;50.798;6.430;2024-01-30T07:43:55;9.20;;;6.22;;
19285;SDS011;9776;50.798;6.430;2024-01-30T07:46:22;14.98;;;6.25;;
19285;SDS011;9776;50.798;6.430;2024-01-30T07:48:52;8.60;;;5.80;;
19285;SDS011;9776;50.798;6.430;2024-01-30T07:51:20;11.90;;;5.95;;
19285;SDS011;9776;50.798;6.430;2024-01-30T07:53:47;9.15;;;5.57;;
19285;SDS011;9776;50.798;6.430;2024-01-30T07:56:14;15.70;;;7.60;;
19285;SDS011;9776;50.798;6.430;2024-01-30T07:58:41;11.70;;;7.07;;
19285;SDS011;9776;50.798;6.430;2024-01-30T08:01:08;11.35;;;6.95;;
19285;SDS011;9776;50.798;6.430;2024-01-30T08:03:34;11.32;;;6.15;;
19285;SDS011;9776;50.798;6.430;2024-01-30T08:06:03;10.77;;;6.43;;
19285;SDS011;9776;50.798;6.430;2024-01-30T08:08:31;13.00;;;6.95;;
19285;SDS011;9776;50.798;6.430;2024-01-30T08:10:58;11.02;;;6.07;;
19285;SDS011;9776;50.798;6.430;2024-01-30T08:13:25;12.82;;;6.90;;
19285;SDS011;9776;50.798;6.430;2024-01-30T08:15:51;12.57;;;7.22;;
19285;SDS011;9776;50.798;6.430;2024-01-30T08:18:18;10.95;;;6.85;;
19285;SDS011;9776;50.798;6.430;2024-01-30T08:20:45;11.73;;;6.95;;
19285;SDS011;9776;50.798;6.430;2024-01-30T08:23:13;11.57;;;7.13;;
19285;SDS011;9776;50.798;6.430;2024-01-30T08:25:40;12.32;;;6.75;;
19285;SDS011;9776;50.798;6.430;2024-01-30T08:28:06;12.48;;;6.57;;
19285;SDS011;9776;50.798;6.430;2024-01-30T08:30:33;12.07;;;7.10;;
19285;SDS011;9776;50.798;6.430;2024-01-30T08:33:00;11.48;;;7.22;;
19285;SDS011;9776;50.798;6.430;2024-01-30T08:35:27;10.00;;;6.70;;
19285;SDS011;9776;50.798;6.430;2024-01-30T08:37:56;11.65;;;6.60;;
19285;SDS011;9776;50.798;6.430;2024-01-30T08:40:24;10.13;;;6.57;;
19285;SDS011;9776;50.798;6.430;2024-01-30T08:42:51;10.48;;;6.47;;
19285;SDS011;9776;50.798;6.430;2024-01-30T08:45:18;10.20;;;6.53;;
19285;SDS011;9776;50.798;6.430;2024-01-30T08:47:44;13.18;;;7.32;;
19285;SDS011;9776;50.798;6.430;2024-01-30T08:50:11;11.68;;;7.40;;
19285;SDS011;9776;50.798;6.430;2024-01-30T08:52:38;10.98;;;6.60;;
19285;SDS011;9776;50.798;6.430;2024-01-30T08:55:04;11.98;;;7.40;;
19285;SDS011;9776;50.798;6.430;2024-01-30T08:57:33;11.65;;;7.22;;
19285;SDS011;9776;50.798;6.430;2024-01-30T08:59:59;14.23;;;7.75;;
19285;SDS011;9776;50.798;6.430;2024-01-30T09:02:29;13.45;;;7.00;;
19285;SDS011;9776;50.798;6.430;2024-01-30T09:04:56;12.90;;;7.70;;
19285;SDS011;9776;50.798;6.430;2024-01-30T09:07:22;11.60;;;7.30;;
19285;SDS011;9776;50.798;6.430;2024-01-30T09:09:49;14.07;;;7.57;;
19285;SDS011;9776;50.798;6.430;2024-01-30T09:12:16;12.80;;;7.45;;
19285;SDS011;9776;50.798;6.430;2024-01-30T09:14:44;14.85;;;8.48;;
19285;SDS011;9776;50.798;6.430;2024-01-30T09:17:10;13.30;;;7.55;;
19285;SDS011;9776;50.798;6.430;2024-01-30T09:19:37;13.07;;;7.07;;
19285;SDS011;9776;50.798;6.430;2024-01-30T09:22:04;10.63;;;6.88;;
19285;SDS011;9776;50.798;6.430;2024-01-30T09:24:31;11.98;;;7.32;;
19285;SDS011;9776;50.798;6.430;2024-01-30T09:26:58;13.38;;;6.82;;
19285;SDS011;9776;50.798;6.430;2024-01-30T09:29:24;13.65;;;7.47;;
19285;SDS011;9776;50.798;6.430;2024-01-30T09:31:53;11.18;;;7.20;;
19285;SDS011;9776;50.798;6.430;2024-01-30T09:34:20;11.77;;;7.13;;
19285;SDS011;9776;50.798;6.430;2024-01-30T09:36:46;11.80;;;6.65;;
19285;SDS011;9776;50.798;6.430;2024-01-30T09:39:13;10.23;;;6.82;;
19285;SDS011;9776;50.798;6.430;2024-01-30T09:41:42;13.43;;;6.90;;
19285;SDS011;9776;50.798;6.430;2024-01-30T09:44:11;20.30;;;10.55;;
19285;SDS011;9776;50.798;6.430;2024-01-30T09:46:41;16.77;;;9.82;;
19285;SDS011;9776;50.798;6.430;2024-01-30T09:49:10;13.63;;;7.97;;
19285;SDS011;9776;50.798;6.430;2024-01-30T09:51:37;13.93;;;8.25;;
19285;SDS011;9776;50.798;6.430;2024-01-30T09:54:04;11.65;;;7.65;;
19285;SDS011;9776;50.798;6.430;2024-01-30T09:56:32;12.93;;;7.55;;
19285;SDS011;9776;50.798;6.430;2024-01-30T09:58:59;12.68;;;7.45;;
19285;SDS011;9776;50.798;6.430;2024-01-30T10:01:26;13.13;;;7.30;;
19285;SDS011;9776;50.798;6.430;2024-01-30T10:03:53;12.93;;;7.45;;
19285;SDS011;9776;50.798;6.430;2024-01-30T10:06:21;13.57;;;8.07;;
19285;SDS011;9776;50.798;6.430;2024-01-30T10:08:50;11.07;;;6.97;;
19285;SDS011;9776;50.798;6.430;2024-01-30T10:11:17;14.73;;;7.32;;
19285;SDS011;9776;50.798;6.430;2024-01-30T10:13:44;13.50;;;7.43;;
19285;SDS011;9776;50.798;6.430;2024-01-30T10:16:13;12.57;;;6.90;;
19285;SDS011;9776;50.798;6.430;2024-01-30T10:18:40;16.42;;;7.03;;
19285;SDS011;9776;50.798;6.430;2024-01-30T10:21:07;13.00;;;6.88;;
19285;SDS011;9776;50.798;6.430;2024-01-30T10:23:36;10.27;;;6.15;;
19285;SDS011;9776;50.798;6.430;2024-01-30T10:26:03;14.23;;;7.00;;
19285;SDS011;9776;50.798;6.430;2024-01-30T10:28:30;10.98;;;6.72;;
19285;SDS011;9776;50.798;6.430;2024-01-30T10:30:57;14.85;;;6.68;;
19285;SDS011;9776;50.798;6.430;2024-01-30T10:33:25;13.40;;;6.38;;
19285;SDS011;9776;50.798;6.430;2024-01-30T10:35:52;10.93;;;7.13;;
19285;SDS011;9776;50.798;6.430;2024-01-30T10:38:22;12.20;;;5.25;;
19285;SDS011;9776;50.798;6.430;2024-01-30T10:40:53;9.95;;;4.32;;
19285;SDS011;9776;50.798;6.430;2024-01-30T10:43:23;8.77;;;4.65;;
19285;SDS011;9776;50.798;6.430;2024-01-30T10:45:56;13.25;;;6.28;;
19285;SDS011;9776;50.798;6.430;2024-01-30T10:48:29;9.82;;;4.10;;
19285;SDS011;9776;50.798;6.430;2024-01-30T10:50:59;8.93;;;3.08;;
19285;SDS011;9776;50.798;6.430;2024-01-30T10:53:26;9.00;;;3.55;;
19285;SDS011;9776;50.798;6.430;2024-01-30T10:55:55;6.47;;;3.55;;
19285;SDS011;9776;50.798;6.430;2024-01-30T10:58:23;8.80;;;3.63;;
19285;SDS011;9776;50.798;6.430;2024-01-30T11:00:51;9.15;;;3.95;;
19285;SDS011;9776;50.798;6.430;2024-01-30T11:03:18;8.50;;;3.08;;
19285;SDS011;9776;50.798;6.430;2024-01-30T11:05:48;11.02;;;3.15;;
19285;SDS011;9776;50.798;6.430;2024-01-30T11:08:22;8.07;;;3.47;;
19285;SDS011;9776;50.798;6.430;2024-01-30T11:10:49;7.05;;;3.70;;
19285;SDS011;9776;50.798;6.430;2024-01-30T11:13:21;9.35;;;3.50;;
19285;SDS011;9776;50.798;6.430;2024-01-30T11:15:48;8.73;;;3.58;;
19285;SDS011;9776;50.798;6.430;2024-01-30T11:18:22;11.77;;;3.50;;
19285;SDS011;9776;50.798;6.430;2024-01-30T11:20:49;7.30;;;3.33;;
19285;SDS011;9776;50.798;6.430;2024-01-30T11:23:16;6.88;;;3.75;;
19285;SDS011;9776;50.798;6.430;2024-01-30T11:25:43;8.55;;;3.10;;
19285;SDS011;9776;50.798;6.430;2024-01-30T11:28:12;6.63;;;3.30;;
19285;SDS011;9776;50.798;6.430;2024-01-30T11:30:41;8.63;;;3.30;;
19285;SDS011;9776;50.798;6.430;2024-01-30T11:33:09;7.20;;;3.75;;
19285;SDS011;9776;50.798;6.430;2024-01-30T11:35:38;8.45;;;3.67;;
19285;SDS011;9776;50.798;6.430;2024-01-30T11:38:06;7.72;;;3.30;;
19285;SDS011;9776;50.798;6.430;2024-01-30T11:40:34;9.30;;;4.10;;
19285;SDS011;9776;50.798;6.430;2024-01-30T11:43:02;8.07;;;4.32;;
19285;SDS011;9776;50.798;6.430;2024-01-30T11:45:30;7.72;;;4.25;;
19285;SDS011;9776;50.798;6.430;2024-01-30T11:47:59;14.13;;;6.60;;
19285;SDS011;9776;50.798;6.430;2024-01-30T11:50:28;8.68;;;4.50;;
19285;SDS011;9776;50.798;6.430;2024-01-30T11:52:55;12.05;;;4.32;;
19285;SDS011;9776;50.798;6.430;2024-01-30T11:55:23;8.38;;;3.97;;
19285;SDS011;9776;50.798;6.430;2024-01-30T11:57:50;8.45;;;3.80;;
19285;SDS011;9776;50.798;6.430;2024-01-30T12:00:17;12.52;;;4.35;;
19285;SDS011;9776;50.798;6.430;2024-01-30T12:02:49;7.18;;;4.20;;
19285;SDS011;9776;50.798;6.430;2024-01-30T12:05:18;9.45;;;4.20;;
19285;SDS011;9776;50.798;6.430;2024-01-30T12:07:45;8.43;;;4.05;;
19285;SDS011;9776;50.798;6.430;2024-01-30T12:10:12;10.18;;;4.13;;
19285;SDS011;9776;50.798;6.430;2024-01-30T12:12:40;8.88;;;4.28;;
19285;SDS011;9776;50.798;6.430;2024-01-30T12:15:09;10.02;;;4.40;;
19285;SDS011;9776;50.798;6.430;2024-01-30T12:17:37;7.85;;;4.70;;
19285;SDS011;9776;50.798;6.430;2024-01-30T12:20:04;6.50;;;4.15;;
19285;SDS011;9776;50.798;6.430;2024-01-30T12:22:33;7.07;;;4.32;;
19285;SDS011;9776;50.798;6.430;2024-01-30T12:25:04;7.03;;;4.47;;
19285;SDS011;9776;50.798;6.430;2024-01-30T12:27:31;9.45;;;4.55;;
19285;SDS011;9776;50.798;6.430;2024-01-30T12:29:58;6.63;;;4.30;;
19285;SDS011;9776;50.798;6.430;2024-01-30T12:32:24;8.25;;;4.70;;
19285;SDS011;9776;50.798;6.430;2024-01-30T12:34:54;10.15;;;4.65;;
19285;SDS011;9776;50.798;6.430;2024-01-30T12:37:22;10.77;;;4.63;;
19285;SDS011;9776;50.798;6.430;2024-01-30T12:39:51;8.38;;;4.30;;
19285;SDS011;9776;50.798;6.430;2024-01-30T12:42:19;7.57;;;4.55;;
19285;SDS011;9776;50.798;6.430;2024-01-30T12:44:47;8.65;;;4.80;;
19285;SDS011;9776;50.798;6.430;2024-01-30T12:47:14;6.88;;;4.03;;
19285;SDS011;9776;50.798;6.430;2024-01-30T12:49:42;7.82;;;4.70;;
19285;SDS011;9776;50.798;6.430;2024-01-30T12:52:09;7.43;;;3.88;;
19285;SDS011;9776;50.798;6.430;2024-01-30T12:54:36;10.30;;;4.20;;
19285;SDS011;9776;50.798;6.430;2024-01-30T12:57:04;6.85;;;3.88;;
19285;SDS011;9776;50.798;6.430;2024-01-30T12:59:31;5.95;;;3.30;;
19285;SDS011;9776;50.798;6.430;2024-01-30T13:01:59;6.70;;;3.33;;
19285;SDS011;9776;50.798;6.430;2024-01-30T13:04:27;6.85;;;3.35;;
19285;SDS011;9776;50.798;6.430;2024-01-30T13:06:54;7.32;;;4.25;;
19285;SDS011;9776;50.798;6.430;2024-01-30T13:09:21;7.15;;;3.70;;
19285;SDS011;9776;50.798;6.430;2024-01-30T13:11:48;5.65;;;3.92;;
19285;SDS011;9776;50.798;6.430;2024-01-30T13:14:17;6.57;;;3.60;;
19285;SDS011;9776;50.798;6.430;2024-01-30T13:16:44;6.50;;;3.42;;
19285;SDS011;9776;50.798;6.430;2024-01-30T13:19:11;7.78;;;3.65;;
19285;SDS011;9776;50.798;6.430;2024-01-30T13:21:37;6.30;;;3.38;;
19285;SDS011;9776;50.798;6.430;2024-01-30T13:24:05;12.65;;;4.10;;
19285;SDS011;9776;50.798;6.430;2024-01-30T13:26:32;7.45;;;3.72;;
19285;SDS011;9776;50.798;6.430;2024-01-30T13:28:59;7.63;;;3.70;;
19285;SDS011;9776;50.798;6.430;2024-01-30T13:31:27;13.70;;;4.55;;
19285;SDS011;9776;50.798;6.430;2024-01-30T13:33:53;6.00;;;3.75;;
19285;SDS011;9776;50.798;6.430;2024-01-30T13:36:20;7.18;;;3.65;;
19285;SDS011;9776;50.798;6.430;2024-01-30T13:38:48;9.32;;;4.68;;
19285;SDS011;9776;50.798;6.430;2024-01-30T13:41:15;7.55;;;3.95;;
19285;SDS011;9776;50.798;6.430;2024-01-30T13:43:42;7.22;;;3.70;;
19285;SDS011;9776;50.798;6.430;2024-01-30T13:46:09;10.52;;;5.20;;
19285;SDS011;9776;50.798;6.430;2024-01-30T13:48:37;7.93;;;3.63;;
19285;SDS011;9776;50.798;6.430;2024-01-30T13:51:04;10.02;;;4.78;;
19285;SDS011;9776;50.798;6.430;2024-01-30T13:53:31;7.55;;;4.13;;
19285;SDS011;9776;50.798;6.430;2024-01-30T13:55:58;6.13;;;4.18;;
19285;SDS011;9776;50.798;6.430;2024-01-30T13:58:25;13.88;;;6.75;;
19285;SDS011;9776;50.798;6.430;2024-01-30T14:00:52;9.30;;;5.32;;
19285;SDS011;9776;50.798;6.430;2024-01-30T14:03:19;10.13;;;5.57;;
19285;SDS011;9776;50.798;6.430;2024-01-30T14:05:47;8.35;;;5.40;;
19285;SDS011;9776;50.798;6.430;2024-01-30T14:08:14;8.25;;;5.00;;
19285;SDS011;9776;50.798;6.430;2024-01-30T14:10:41;8.68;;;4.78;;
19285;SDS011;9776;50.798;6.430;2024-01-30T14:13:08;7.70;;;4.53;;
19285;SDS011;9776;50.798;6.430;2024-01-30T14:15:36;12.00;;;5.30;;
19285;SDS011;9776;50.798;6.430;2024-01-30T14:18:03;11.13;;;4.72;;
19285;SDS011;9776;50.798;6.430;2024-01-30T14:20:30;8.10;;;5.03;;
19285;SDS011;9776;50.798;6.430;2024-01-30T14:22:58;11.68;;;5.80;;
19285;SDS011;9776;50.798;6.430;2024-01-30T14:25:25;17.73;;;8.05;;
19285;SDS011;9776;50.798;6.430;2024-01-30T14:27:52;11.00;;;5.80;;
19285;SDS011;9776;50.798;6.430;2024-01-30T14:30:19;10.30;;;4.72;;
19285;SDS011;9776;50.798;6.430;2024-01-30T14:32:45;8.65;;;4.75;;
19285;SDS011;9776;50.798;6.430;2024-01-30T14:35:13;12.52;;;5.35;;
19285;SDS011;9776;50.798;6.430;2024-01-30T14:37:39;9.95;;;6.00;;
19285;SDS011;9776;50.798;6.430;2024-01-30T14:40:08;11.23;;;5.13;;
19285;SDS011;9776;50.798;6.430;2024-01-30T14:42:35;9.27;;;5.07;;
19285;SDS011;9776;50.798;6.430;2024-01-30T14:45:02;11.60;;;5.18;;
19285;SDS011;9776;50.798;6.430;2024-01-30T14:47:29;9.85;;;5.20;;
19285;SDS011;9776;50.798;6.430;2024-01-30T14:49:56;19.10;;;6.88;;
19285;SDS011;9776;50.798;6.430;2024-01-30T14:52:23;11.50;;;5.75;;
19285;SDS011;9776;50.798;6.430;2024-01-30T14:54:50;14.48;;;5.50;;